Columbia, Iowa
Current Conditions -  °F | °C
As of 1:15 PM on Thursday 30 Oct 2014 (Local Time) from KOXV Reporting Station
Clear Clear  
Wind Chill: 14°   Ceiling: Unl
Heat Index: 14°   Visibility: NA
Dew Point:   Wind: 6mph
Humidity: 48%   Direction: 280°W
Pressure: 29.99"   Gusts: NA
Location:  41.18°N, 93.15°W
Report Text: KOXV 301815Z AUTO 28005KT CLR 14/03 A2999 RMK AO2
Loading
Personal Weather Stations






























Interactive Weather Map
Tropical Storm Tracking
New forecast layout! Learn more

10-Day Weather Forecast

Advertisements
Track Severe Weather on mobile